createdAt,value
2022-08-17T00:02:26.093Z,23.50
2022-08-17T00:04:54.322Z,23.50
2022-08-17T00:07:21.568Z,23.40
2022-08-17T00:09:48.420Z,23.40
2022-08-17T00:12:43.683Z,23.40
2022-08-17T00:15:02.385Z,23.30
2022-08-17T00:17:29.142Z,23.30
2022-08-17T00:19:56.209Z,23.30
2022-08-17T00:22:31.975Z,23.30
2022-08-17T00:25:05.241Z,23.30
2022-08-17T00:27:31.978Z,23.30
2022-08-17T00:29:58.881Z,23.30
2022-08-17T00:33:15.411Z,23.30
2022-08-17T00:35:15.052Z,23.30
2022-08-17T00:37:41.985Z,23.30
2022-08-17T00:40:13.062Z,23.30
2022-08-17T00:42:40.255Z,23.30
2022-08-17T00:45:09.756Z,23.20
2022-08-17T00:47:36.575Z,23.20
2022-08-17T00:50:05.621Z,23.20
2022-08-17T00:52:39.007Z,23.10
2022-08-17T00:55:08.512Z,23.10
2022-08-17T00:57:53.339Z,23.00
2022-08-17T01:00:33.162Z,23.00
2022-08-17T01:03:08.085Z,23.00
2022-08-17T01:05:38.718Z,23.00
2022-08-17T01:08:13.370Z,22.90
2022-08-17T01:10:59.917Z,22.80
2022-08-17T01:13:40.722Z,22.80
2022-08-17T01:16:41.353Z,22.80
2022-08-17T01:19:25.220Z,22.80
2022-08-17T01:22:05.631Z,22.80
2022-08-17T01:24:34.123Z,22.70
2022-08-17T01:27:02.025Z,22.70
2022-08-17T01:29:30.877Z,22.70
2022-08-17T01:32:01.362Z,22.60
2022-08-17T01:34:42.319Z,22.70
2022-08-17T01:37:13.099Z,22.60
2022-08-17T01:39:48.750Z,22.60
2022-08-17T01:42:34.483Z,22.60
2022-08-17T01:45:09.331Z,22.60
2022-08-17T01:47:37.459Z,22.50
2022-08-17T01:50:15.718Z,22.50
2022-08-17T01:52:47.747Z,22.50
2022-08-17T01:55:17.432Z,22.50
2022-08-17T01:57:45.497Z,22.40
2022-08-17T02:00:13.494Z,22.40
2022-08-17T02:02:40.907Z,22.40
2022-08-17T02:05:07.943Z,22.30
2022-08-17T02:07:59.365Z,22.30
2022-08-17T02:10:23.658Z,22.20
2022-08-17T02:12:50.562Z,22.20
2022-08-17T02:15:17.500Z,22.10
2022-08-17T02:17:44.909Z,22.20
2022-08-17T02:20:11.807Z,22.20
2022-08-17T02:22:40.966Z,22.20
2022-08-17T02:25:09.898Z,22.10
2022-08-17T02:27:38.629Z,22.10
2022-08-17T02:31:02.146Z,22.00
2022-08-17T02:32:57.592Z,22.00
2022-08-17T02:35:24.401Z,22.00
2022-08-17T02:37:51.908Z,22.00
2022-08-17T02:40:35.025Z,22.00
2022-08-17T02:43:04.117Z,22.00
2022-08-17T02:45:30.826Z,21.90
2022-08-17T02:47:57.583Z,21.90
2022-08-17T02:50:25.307Z,21.90
2022-08-17T02:53:02.320Z,21.80
2022-08-17T02:55:35.401Z,21.80
2022-08-17T02:58:03.583Z,21.70
2022-08-17T03:00:43.903Z,21.70
2022-08-17T03:03:13.553Z,21.70
2022-08-17T03:05:40.610Z,21.60
2022-08-17T03:08:10.462Z,21.60
2022-08-17T03:10:40.636Z,21.60
2022-08-17T03:13:07.532Z,21.50
2022-08-17T03:15:34.994Z,21.50
2022-08-17T03:18:02.289Z,21.50
2022-08-17T03:20:31.590Z,21.50
2022-08-17T03:23:02.036Z,21.50
2022-08-17T03:25:44.050Z,21.40
2022-08-17T03:28:14.586Z,21.50
2022-08-17T03:30:41.729Z,21.50
2022-08-17T03:33:12.720Z,21.50
2022-08-17T03:35:40.550Z,21.40
2022-08-17T03:38:10.381Z,21.40
2022-08-17T03:40:56.853Z,21.50
2022-08-17T03:43:26.124Z,21.50
2022-08-17T03:46:33.917Z,21.40
2022-08-17T03:49:17.213Z,21.40
2022-08-17T03:52:02.370Z,21.50
2022-08-17T03:54:47.719Z,21.40
2022-08-17T03:57:14.497Z,21.40
2022-08-17T03:59:41.403Z,21.40
2022-08-17T04:02:12.892Z,21.40
2022-08-17T04:04:39.951Z,21.50
2022-08-17T04:07:07.337Z,21.40
2022-08-17T04:09:34.429Z,21.50
2022-08-17T04:12:04.922Z,21.50
2022-08-17T04:14:47.748Z,21.40
2022-08-17T04:17:22.694Z,21.30
2022-08-17T04:19:49.399Z,21.40
2022-08-17T04:22:31.730Z,21.40
2022-08-17T04:25:16.623Z,21.40
2022-08-17T04:27:43.433Z,21.40
2022-08-17T04:30:12.126Z,21.40
2022-08-17T04:33:07.374Z,21.40
2022-08-17T04:35:58.970Z,21.40
2022-08-17T04:38:28.774Z,21.40
2022-08-17T04:41:15.995Z,21.40
2022-08-17T04:43:45.079Z,21.40
2022-08-17T04:46:14.713Z,21.40
2022-08-17T04:48:44.236Z,21.40
2022-08-17T04:51:13.198Z,21.40
2022-08-17T04:53:42.057Z,21.40
2022-08-17T04:56:16.001Z,21.40
2022-08-17T04:58:46.254Z,21.40
2022-08-17T05:01:13.456Z,21.40
2022-08-17T05:03:41.130Z,21.40
2022-08-17T05:06:08.186Z,21.40
2022-08-17T05:08:35.418Z,21.40
2022-08-17T05:11:02.153Z,21.40
2022-08-17T05:13:32.265Z,21.50
2022-08-17T05:16:01.412Z,21.50
2022-08-17T05:18:30.064Z,21.60
2022-08-17T05:20:57.200Z,21.60
2022-08-17T05:23:26.368Z,21.60
2022-08-17T05:25:55.569Z,21.60
2022-08-17T05:28:27.634Z,21.60
2022-08-17T05:30:59.153Z,21.60
2022-08-17T05:33:29.949Z,21.70
2022-08-17T05:35:58.567Z,21.70
2022-08-17T05:38:27.022Z,21.80
2022-08-17T05:40:54.499Z,21.80
2022-08-17T05:43:27.876Z,21.90
2022-08-17T05:46:02.019Z,22.00
2022-08-17T05:48:35.688Z,22.20
2022-08-17T05:51:22.472Z,22.20
2022-08-17T05:54:09.461Z,22.40
2022-08-17T05:56:48.431Z,22.50
2022-08-17T05:59:22.589Z,22.50
2022-08-17T06:02:06.585Z,22.40
2022-08-17T06:04:52.077Z,22.50
2022-08-17T06:07:29.184Z,22.50
2022-08-17T06:10:18.376Z,22.50
2022-08-17T06:12:59.143Z,22.60
2022-08-17T06:15:50.560Z,22.60
2022-08-17T06:18:20.166Z,22.80
2022-08-17T06:21:15.515Z,22.80
2022-08-17T06:23:50.183Z,22.90
2022-08-17T06:26:27.501Z,22.90
2022-08-17T06:29:37.038Z,23.00
2022-08-17T06:32:08.385Z,23.10
2022-08-17T06:34:37.412Z,23.30
2022-08-17T06:37:21.114Z,23.50
2022-08-17T06:40:35.878Z,23.60
2022-08-17T06:43:21.218Z,23.70
2022-08-17T06:46:01.649Z,23.70
2022-08-17T06:48:45.219Z,23.80
2022-08-17T06:51:29.235Z,23.80
2022-08-17T06:54:11.151Z,23.90
2022-08-17T06:57:18.352Z,23.90
2022-08-17T06:59:59.061Z,23.90
2022-08-17T07:02:52.351Z,23.90
2022-08-17T07:05:24.564Z,23.90
2022-08-17T07:08:02.171Z,24.00
2022-08-17T07:10:46.920Z,24.00
2022-08-17T07:13:51.241Z,24.10
2022-08-17T07:16:32.394Z,24.20
2022-08-17T07:18:59.899Z,24.20
2022-08-17T07:21:40.896Z,24.20
2022-08-17T07:24:52.444Z,24.30
2022-08-17T07:27:27.417Z,24.40
2022-08-17T07:30:10.849Z,24.40
2022-08-17T07:32:59.127Z,24.50
2022-08-17T07:35:37.567Z,24.60
2022-08-17T07:38:25.530Z,24.70
2022-08-17T07:41:02.609Z,24.70
2022-08-17T07:43:31.544Z,24.80
2022-08-17T07:46:40.589Z,24.80
2022-08-17T07:49:10.363Z,24.80
2022-08-17T07:51:52.633Z,24.80
2022-08-17T07:54:24.209Z,24.90
2022-08-17T07:56:54.143Z,24.90
2022-08-17T07:59:36.294Z,24.90
2022-08-17T08:02:40.292Z,25.00
2022-08-17T08:05:13.144Z,25.20
2022-08-17T08:07:51.035Z,25.20
2022-08-17T08:10:35.932Z,25.40
2022-08-17T08:13:07.636Z,25.50
2022-08-17T08:15:45.266Z,25.70
2022-08-17T08:18:54.369Z,25.90
2022-08-17T08:21:25.112Z,26.10
2022-08-17T08:23:57.821Z,26.30
2022-08-17T08:26:34.832Z,26.40
2022-08-17T08:29:28.317Z,26.50
2022-08-17T08:31:57.853Z,26.60
2022-08-17T08:35:01.397Z,26.70
2022-08-17T08:37:49.773Z,26.80
2022-08-17T08:40:19.781Z,26.90
2022-08-17T08:42:52.703Z,26.90
2022-08-17T08:45:47.460Z,26.90
2022-08-17T08:48:56.627Z,27.00
2022-08-17T08:51:52.312Z,27.00
2022-08-17T08:54:34.818Z,27.10
2022-08-17T08:57:29.396Z,27.30
2022-08-17T09:00:07.266Z,27.40
2022-08-17T09:02:34.818Z,27.60
2022-08-17T09:05:21.321Z,27.70
2022-08-17T09:08:05.468Z,27.80
2022-08-17T09:10:59.715Z,27.90
2022-08-17T09:13:47.102Z,28.00
2022-08-17T09:16:50.499Z,28.00
2022-08-17T09:19:30.249Z,28.00
2022-08-17T09:22:31.782Z,28.10
2022-08-17T09:25:22.080Z,28.20
2022-08-17T09:28:07.403Z,28.30
2022-08-17T09:30:50.561Z,28.30
2022-08-17T09:33:26.201Z,28.50
2022-08-17T09:36:09.948Z,28.50
2022-08-17T09:39:03.842Z,28.60
2022-08-17T09:41:52.787Z,28.80
2022-08-17T09:44:40.260Z,28.90
2022-08-17T09:47:45.410Z,29.20
2022-08-17T09:51:03.747Z,29.30
2022-08-17T09:53:09.274Z,29.40
2022-08-17T09:55:52.701Z,29.50
2022-08-17T09:58:50.355Z,29.60
2022-08-17T10:01:36.507Z,29.60
2022-08-17T10:04:47.692Z,29.50
2022-08-17T10:07:39.817Z,29.50
2022-08-17T10:10:15.598Z,29.50
2022-08-17T10:12:54.448Z,29.50
2022-08-17T10:15:52.257Z,29.40
2022-08-17T10:18:23.419Z,29.50
2022-08-17T10:21:42.811Z,29.40
2022-08-17T10:25:21.197Z,29.50
2022-08-17T10:27:49.246Z,29.40
2022-08-17T10:30:26.561Z,29.50
2022-08-17T10:32:57.557Z,29.40
2022-08-17T10:35:39.411Z,29.40
2022-08-17T10:38:12.552Z,29.30
2022-08-17T10:40:51.728Z,29.20
2022-08-17T10:43:31.013Z,29.00
2022-08-17T10:46:30.297Z,28.60
2022-08-17T10:49:16.895Z,28.20
2022-08-17T10:51:47.830Z,27.60
2022-08-17T10:55:01.784Z,27.40
2022-08-17T10:57:36.970Z,27.20
2022-08-17T11:00:10.311Z,27.10
2022-08-17T11:03:06.194Z,27.20
2022-08-17T11:05:44.021Z,27.20
2022-08-17T11:08:39.077Z,27.30
2022-08-17T11:11:40.034Z,27.40
2022-08-17T11:14:47.909Z,27.40
2022-08-17T11:17:30.974Z,27.50
2022-08-17T11:20:22.495Z,27.40
2022-08-17T11:23:04.087Z,27.40
2022-08-17T11:25:38.307Z,27.40
2022-08-17T11:28:18.355Z,27.40
2022-08-17T11:31:01.559Z,27.40
2022-08-17T11:33:36.833Z,27.40
2022-08-17T11:36:31.593Z,27.40
2022-08-17T11:39:03.105Z,27.30
2022-08-17T11:41:54.408Z,27.20
2022-08-17T11:44:32.260Z,27.20
2022-08-17T11:47:23.480Z,27.10
2022-08-17T11:50:30.831Z,27.20
2022-08-17T11:52:57.622Z,27.10
2022-08-17T11:55:38.205Z,27.10
2022-08-17T11:58:25.940Z,27.00
2022-08-17T12:00:57.782Z,27.10
2022-08-17T12:03:31.557Z,27.10
2022-08-17T12:06:05.843Z,27.20
2022-08-17T12:08:34.525Z,27.20
2022-08-17T12:11:11.611Z,27.30
2022-08-17T12:13:47.241Z,27.30
2022-08-17T12:16:16.653Z,27.30
2022-08-17T12:18:53.874Z,27.40
2022-08-17T12:21:31.083Z,27.40
2022-08-17T12:24:25.436Z,27.50
2022-08-17T12:26:58.926Z,27.60
2022-08-17T12:29:35.930Z,27.60
2022-08-17T12:32:12.838Z,27.70
2022-08-17T12:34:42.571Z,27.70
2022-08-17T12:37:21.380Z,27.80
2022-08-17T12:39:58.567Z,27.80
2022-08-17T12:42:56.386Z,27.90
2022-08-17T12:45:26.906Z,28.00
2022-08-17T12:48:07.690Z,28.10
2022-08-17T12:50:40.548Z,28.30
2022-08-17T12:53:14.224Z,28.40
2022-08-17T12:55:42.979Z,28.50
2022-08-17T12:58:14.475Z,28.50
2022-08-17T13:00:48.532Z,28.50
2022-08-17T13:03:21.637Z,28.50
2022-08-17T13:05:57.656Z,28.60
2022-08-17T13:08:38.385Z,28.60
2022-08-17T13:11:19.348Z,28.50
2022-08-17T13:13:52.364Z,28.50
2022-08-17T13:16:22.216Z,28.50
2022-08-17T13:19:16.293Z,28.40
2022-08-17T13:21:52.069Z,28.40
2022-08-17T13:24:30.473Z,28.50
2022-08-17T13:27:08.435Z,28.50
2022-08-17T13:29:52.828Z,28.50
2022-08-17T13:32:33.492Z,28.30
2022-08-17T13:35:14.303Z,28.40
2022-08-17T13:37:58.448Z,28.50
2022-08-17T13:40:37.706Z,28.70
2022-08-17T13:43:05.383Z,28.80
2022-08-17T13:45:40.489Z,28.90
2022-08-17T13:48:14.052Z,28.90
2022-08-17T13:51:15.480Z,29.00
2022-08-17T13:53:42.366Z,29.00
2022-08-17T13:56:37.183Z,29.00
2022-08-17T13:59:13.036Z,29.00
2022-08-17T14:01:43.574Z,29.10
2022-08-17T14:04:17.738Z,29.10
2022-08-17T14:06:52.367Z,29.00
2022-08-17T14:09:24.174Z,29.00
2022-08-17T14:11:52.907Z,29.00
2022-08-17T14:14:21.687Z,29.00
2022-08-17T14:16:49.003Z,29.00
2022-08-17T14:19:16.113Z,29.10
2022-08-17T14:21:46.349Z,29.30
2022-08-17T14:24:28.570Z,29.30
2022-08-17T14:26:57.456Z,29.30
2022-08-17T14:29:27.728Z,29.40
2022-08-17T14:31:56.358Z,29.30
2022-08-17T14:34:24.374Z,29.30
2022-08-17T14:36:51.884Z,29.30
2022-08-17T14:39:19.475Z,29.30
2022-08-17T14:41:46.717Z,29.40
2022-08-17T14:44:13.765Z,29.40
2022-08-17T14:46:42.976Z,29.50
2022-08-17T14:49:12.174Z,29.50
2022-08-17T14:51:44.100Z,29.60
2022-08-17T14:54:32.595Z,29.60
2022-08-17T14:57:22.184Z,29.60
2022-08-17T14:59:48.846Z,29.50
2022-08-17T15:02:23.142Z,29.50
2022-08-17T15:05:05.942Z,29.40
2022-08-17T15:07:32.791Z,29.30
2022-08-17T15:10:01.336Z,29.30
2022-08-17T15:12:32.770Z,29.30
2022-08-17T15:15:05.413Z,29.30
2022-08-17T15:17:54.703Z,29.30
2022-08-17T15:20:24.619Z,29.30
2022-08-17T15:23:00.821Z,29.20
2022-08-17T15:25:30.373Z,29.20
2022-08-17T15:27:57.666Z,29.10
2022-08-17T15:30:26.435Z,29.00
2022-08-17T15:32:55.577Z,29.00
2022-08-17T15:35:28.097Z,29.00
2022-08-17T15:38:10.552Z,29.00
2022-08-17T15:40:45.520Z,29.00
2022-08-17T15:43:15.651Z,29.00
2022-08-17T15:45:43.213Z,29.00
2022-08-17T15:48:10.355Z,29.10
2022-08-17T15:50:37.547Z,29.20
2022-08-17T15:53:05.010Z,29.20
2022-08-17T15:55:33.106Z,29.20
2022-08-17T15:58:00.641Z,29.00
2022-08-17T16:00:28.525Z,28.90
2022-08-17T16:03:15.265Z,28.80
2022-08-17T16:05:44.139Z,28.70
2022-08-17T16:08:17.096Z,28.70
2022-08-17T16:10:48.748Z,28.60
2022-08-17T16:13:17.496Z,28.50
2022-08-17T16:15:53.051Z,28.50
2022-08-17T16:18:28.191Z,28.50
2022-08-17T16:20:55.283Z,28.40
2022-08-17T16:23:21.968Z,28.40
2022-08-17T16:25:53.157Z,28.30
2022-08-17T16:28:21.733Z,28.20
2022-08-17T16:30:48.474Z,28.20
2022-08-17T16:33:16.599Z,28.20
2022-08-17T16:35:43.339Z,28.20
2022-08-17T16:38:10.926Z,28.20
2022-08-17T16:40:37.890Z,28.20
2022-08-17T16:43:10.235Z,28.10
2022-08-17T16:45:40.363Z,28.20
2022-08-17T16:48:08.768Z,28.10
2022-08-17T16:50:36.612Z,28.10
2022-08-17T16:53:10.406Z,28.20
2022-08-17T16:55:37.999Z,28.40
2022-08-17T16:58:06.605Z,28.40
2022-08-17T17:00:33.745Z,28.50
2022-08-17T17:03:19.506Z,28.40
2022-08-17T17:06:03.609Z,28.30
2022-08-17T17:08:44.372Z,28.20
2022-08-17T17:11:23.219Z,28.10
2022-08-17T17:13:59.927Z,28.00
2022-08-17T17:16:35.961Z,27.80
2022-08-17T17:19:16.094Z,27.60
2022-08-17T17:21:55.916Z,27.40
2022-08-17T17:24:51.510Z,27.30
2022-08-17T17:27:38.998Z,27.20
2022-08-17T17:30:16.635Z,27.20
2022-08-17T17:33:10.082Z,27.40
2022-08-17T17:36:00.142Z,27.50
2022-08-17T17:38:34.352Z,27.50
2022-08-17T17:41:16.017Z,27.50
2022-08-17T17:43:43.400Z,27.60
2022-08-17T17:46:28.521Z,27.70
2022-08-17T17:49:00.304Z,27.80
2022-08-17T17:52:09.043Z,27.80
2022-08-17T17:55:02.308Z,27.80
2022-08-17T17:57:31.874Z,27.70
2022-08-17T18:00:20.635Z,27.50
2022-08-17T18:03:20.853Z,27.40
2022-08-17T18:05:57.268Z,27.30
2022-08-17T18:08:46.404Z,27.20
2022-08-17T18:11:45.080Z,27.20
2022-08-17T18:15:00.282Z,27.20
2022-08-17T18:17:29.518Z,27.10
2022-08-17T18:19:58.312Z,27.00
2022-08-17T18:22:25.913Z,26.90
2022-08-17T18:24:58.833Z,26.80
2022-08-17T18:27:34.675Z,26.70
2022-08-17T18:30:23.567Z,26.60
2022-08-17T18:32:50.571Z,26.50
2022-08-17T18:35:21.447Z,26.50
2022-08-17T18:38:08.559Z,26.40
2022-08-17T18:40:37.577Z,26.40
2022-08-17T18:43:22.870Z,26.20
2022-08-17T18:45:54.674Z,26.10
2022-08-17T18:48:37.845Z,26.10
2022-08-17T18:51:44.005Z,26.00
2022-08-17T18:54:23.984Z,25.90
2022-08-17T18:56:52.499Z,25.80
2022-08-17T18:59:42.153Z,25.70
2022-08-17T19:02:19.442Z,25.70
2022-08-17T19:05:07.863Z,25.70
2022-08-17T19:07:47.308Z,25.60
2022-08-17T19:10:47.007Z,25.60
2022-08-17T19:13:24.111Z,25.50
2022-08-17T19:16:14.601Z,25.40
2022-08-17T19:19:05.418Z,25.40
2022-08-17T19:21:42.389Z,25.40
2022-08-17T19:24:21.188Z,25.30
2022-08-17T19:27:03.271Z,25.30
2022-08-17T19:29:46.792Z,25.20
2022-08-17T19:32:17.244Z,25.20
2022-08-17T19:34:44.575Z,25.10
2022-08-17T19:37:11.202Z,25.10
2022-08-17T19:39:46.826Z,25.10
2022-08-17T19:42:47.214Z,25.00
2022-08-17T19:45:34.538Z,25.00
2022-08-17T19:48:16.485Z,25.00
2022-08-17T19:51:01.591Z,25.00
2022-08-17T19:54:07.157Z,24.90
2022-08-17T19:57:10.381Z,24.90
2022-08-17T20:00:02.743Z,24.90
2022-08-17T20:02:50.125Z,24.80
2022-08-17T20:05:28.380Z,24.70
2022-08-17T20:08:04.028Z,24.70
2022-08-17T20:10:37.319Z,24.60
2022-08-17T20:13:11.266Z,24.60
2022-08-17T20:15:42.472Z,24.60
2022-08-17T20:18:38.009Z,24.50
2022-08-17T20:21:21.608Z,24.50
2022-08-17T20:24:03.625Z,24.50
2022-08-17T20:26:49.084Z,24.40
2022-08-17T20:29:37.252Z,24.40
2022-08-17T20:32:18.780Z,24.30
2022-08-17T20:34:47.847Z,24.40
2022-08-17T20:37:14.718Z,24.30
2022-08-17T20:39:49.636Z,24.30
2022-08-17T20:42:22.700Z,24.30
2022-08-17T20:44:54.336Z,24.30
2022-08-17T20:48:01.157Z,24.20
2022-08-17T20:50:38.638Z,24.10
2022-08-17T20:53:09.967Z,24.00
2022-08-17T20:55:51.843Z,24.00
2022-08-17T20:58:42.263Z,24.00
2022-08-17T21:01:16.087Z,24.00
2022-08-17T21:03:51.288Z,24.00
2022-08-17T21:06:25.600Z,24.00
2022-08-17T21:09:12.849Z,23.90
2022-08-17T21:11:56.766Z,23.90
2022-08-17T21:15:03.374Z,24.00
2022-08-17T21:17:50.185Z,24.00
2022-08-17T21:20:27.011Z,23.90
2022-08-17T21:23:26.421Z,23.90
2022-08-17T21:26:14.509Z,23.80
2022-08-17T21:29:29.964Z,23.80
2022-08-17T21:32:03.814Z,23.80
2022-08-17T21:34:36.811Z,23.80
2022-08-17T21:37:18.900Z,23.70
2022-08-17T21:39:58.584Z,23.70
2022-08-17T21:42:34.383Z,23.70
2022-08-17T21:45:29.764Z,23.60
2022-08-17T21:48:14.807Z,23.60
2022-08-17T21:50:45.713Z,23.60
2022-08-17T21:53:23.807Z,23.40
2022-08-17T21:55:52.914Z,23.30
2022-08-17T21:58:29.115Z,23.30
2022-08-17T22:01:20.020Z,23.20
2022-08-17T22:04:02.072Z,23.20
2022-08-17T22:06:30.673Z,23.20
2022-08-17T22:08:59.822Z,23.20
2022-08-17T22:11:26.654Z,23.20
2022-08-17T22:14:00.722Z,23.20
2022-08-17T22:16:33.080Z,23.20
2022-08-17T22:18:59.916Z,23.20
2022-08-17T22:21:26.812Z,23.30
2022-08-17T22:24:07.275Z,23.30
2022-08-17T22:27:07.450Z,23.30
2022-08-17T22:30:14.240Z,23.30
2022-08-17T22:32:47.508Z,23.20
2022-08-17T22:35:34.527Z,23.20
2022-08-17T22:38:19.704Z,23.20
2022-08-17T22:40:52.760Z,23.20
2022-08-17T22:43:28.849Z,23.10
2022-08-17T22:45:59.458Z,23.10
2022-08-17T22:48:29.272Z,23.10
2022-08-17T22:51:13.455Z,23.10
2022-08-17T22:54:13.066Z,23.10
2022-08-17T22:57:14.356Z,23.10
2022-08-17T22:59:52.126Z,23.00
2022-08-17T23:02:23.480Z,23.00
2022-08-17T23:05:16.605Z,22.90
2022-08-17T23:07:46.609Z,22.90
2022-08-17T23:10:14.706Z,22.80
2022-08-17T23:12:41.684Z,22.80
2022-08-17T23:15:16.709Z,22.80
2022-08-17T23:17:47.160Z,22.80
2022-08-17T23:20:15.731Z,22.70
2022-08-17T23:22:51.952Z,22.70
2022-08-17T23:25:27.987Z,22.70
2022-08-17T23:27:57.210Z,22.70
2022-08-17T23:30:30.501Z,22.70
2022-08-17T23:33:04.614Z,22.70
2022-08-17T23:35:40.540Z,22.70
2022-08-17T23:38:13.699Z,22.60
2022-08-17T23:40:40.929Z,22.50
2022-08-17T23:43:23.974Z,22.60
2022-08-17T23:45:54.123Z,22.50
2022-08-17T23:48:35.307Z,22.50
2022-08-17T23:51:05.979Z,22.50
2022-08-17T23:53:36.457Z,22.50
2022-08-17T23:56:09.423Z,22.50
2022-08-17T23:58:38.732Z,22.40
